Socorro, Brazil
Current Conditions -  °F | °C
As of 12:00 PM on Monday 22 Dec 2014 (Local Time) from SBKP Reporting Station
Overcast Overcast  
Wind Chill: 81°   Ceiling: 2100
Heat Index: 84°   Visibility: 6mi
Dew Point: 70°   Wind: 13mph
Humidity: 70%   Direction: 350°N
Pressure: 30"   Gusts: NA
Location:  22.59°S, 46.53°W
Report Text: SBKP 221400Z 35011KT 9999 BKN021 OVC100 27/21 Q1016
Loading
Personal Weather Stations






























Interactive Weather Map New forecast layout! Learn more

10-Day Weather Forecast

Advertisements
Track Severe Weather on mobile